Monday, December 17, 2018, 5:23 AM EST
Back to Local

KDCA, Washington National Airport

Location: Arlington, VA, United States Lat: 38.85
Local Time: 5:23 AM EST (10:23 GMT) Lon: -77.033
Time Zone: US/Eastern Elev: 16 ft

Show me the last for .
Show Decoded

2018-12-17 04:52 METAR KDCA 170952Z 29006KT 10SM FEW037 07/02 A2988 RMK AO2 SLP118 T00720022 =
2018-12-17 03:52 METAR KDCA 170852Z 20004KT 10SM FEW037 06/03 A2990 RMK AO2 SLP124 T00560028
                 58003 =
2018-12-17 02:52 METAR KDCA 170752Z 28004KT 10SM SCT037 07/03 A2991 RMK AO2 SLP129 T00670028 =
2018-12-17 01:52 METAR KDCA 170652Z 28008KT 10SM OVC036 08/03 A2991 RMK AO2 SLP128 T00780033 =
2018-12-17 00:52 METAR KDCA 170552Z 29005KT 10SM OVC032 07/03 A2991 RMK AO2 SLP127 T00720028
                 10072 20061 58005 =
2018-12-16 23:52 METAR KDCA 170452Z 32004KT 10SM OVC033 07/03 A2992 RMK AO2 SLP130 T00670028
                 401000061 =
2018-12-16 22:52 METAR KDCA 170352Z 32007KT 10SM FEW025 BKN038 06/02 A2993 RMK AO2 SLP135
                 T00610022 =
2018-12-16 21:52 METAR KDCA 170252Z VRB04KT 10SM FEW020 OVC041 07/03 A2992 RMK AO2 SLP133
                 T00670028 51002 =
2018-12-16 20:52 METAR KDCA 170152Z 31007KT 10SM SCT020 OVC043 06/03 A2993 RMK AO2 SLP133
                 T00610028 =
2018-12-16 20:30 METAR KDCA 170130Z 34009KT 10SM SCT020 OVC043 07/03 A2992 RMK AO2 T00670028 =
2018-12-16 20:21 METAR KDCA 170121Z 34008KT 10SM BKN019 OVC043 07/03 A2993 RMK AO2 T00670028 =
2018-12-16 20:03 METAR KDCA 170103Z 35010KT 10SM SCT018 SCT026 OVC042 06/03 A2993 RMK AO2
                 T00610028 =
2018-12-16 19:52 METAR KDCA 170052Z 34013KT 10SM BKN017 BKN026 OVC042 07/03 A2992 RMK AO2 SLP132
                 T00670028 =
2018-12-16 18:52 METAR KDCA 162352Z 32011KT 10SM SCT017 OVC028 07/03 A2992 RMK AO2 SLP131 60003
                 T00670033 10078 20067 53011 =
2018-12-16 18:32 METAR KDCA 162332Z 32013KT 10SM SCT015 BKN028 OVC039 07/03 A2991 RMK AO2
                 T00670033 =
2018-12-16 18:13 METAR KDCA 162313Z 31011KT 10SM SCT016 SCT027 OVC038 07/03 A2990 RMK AO2
                 T00670033 =
2018-12-16 17:52 METAR KDCA 162252Z 33011KT 10SM SCT016 BKN025 OVC038 07/03 A2990 RMK AO2 SLP123
                 T00670033 =
2018-12-16 17:50 METAR KDCA 162250Z 34011KT 10SM SCT016 BKN025 OVC038 07/03 A2990 RMK AO2 =
2018-12-16 17:11 METAR KDCA 162211Z 32011KT 10SM BKN014 BKN019 OVC025 07/04 A2989 RMK AO2
                 T00670039 =
2018-12-16 16:52 METAR KDCA 162152Z 33010KT 10SM OVC015 07/04 A2988 RMK AO2 SLP119 T00670039 =
2018-12-16 16:31 METAR KDCA 162131Z 33013KT 10SM OVC016 07/04 A2988 RMK AO2 T00670039 =
2018-12-16 15:52 METAR KDCA 162052Z 33010KT 10SM OVC014 07/04 A2987 RMK AO2 SLP114 60003
                 T00720044 53014 =
2018-12-16 14:52 METAR KDCA 161952Z 34011KT 10SM SCT010 BKN014 OVC023 07/05 A2985 RMK AO2 RAE1859
                 SLP106 P0000 T00720050 =
2018-12-16 14:35 METAR KDCA 161935Z 32013KT 10SM BKN014 OVC023 08/05 A2984 RMK AO2 RAE1859 P0000
                 T00780050 =
2018-12-16 13:52 METAR KDCA 161852Z 35013KT 10SM -RA BKN015 OVC021 08/06 A2983 RMK AO2 SLP100
                 P0003 T00780056 =
2018-12-16 13:36 METAR KDCA 161836Z 34012KT 10SM -RA SCT013 OVC018 08/06 A2982 RMK AO2 P0002
                 T00780056 =
2018-12-16 12:52 METAR KDCA 161752Z 34012KT 8SM RA OVC013 07/05 A2983 RMK AO2 SLP100 P0009 60044
                 T00720050 10083 20072 57020 =
2018-12-16 11:52 METAR KDCA 161652Z 35010KT 7SM RA BKN012 OVC015 07/06 A2984 RMK AO2 SLP105 P0014
                 T00720056 =
2018-12-16 11:06 METAR KDCA 161606Z 35010KT 4SM RA BR BKN011 OVC014 08/06 A2986 RMK AO2 P0004
                 T00780056 =
2018-12-16 10:52 METAR KDCA 161552Z 36011KT 4SM +RA BR BKN009 OVC013 08/06 A2987 RMK AO2
                 DZE1454RAB1454 SLP114 P0017 T00780056 =
2018-12-16 10:45 METAR KDCA 161545Z 36013KT 4SM +RA BR BKN009 OVC014 08/06 A2987 RMK AO2
                 DZE1454RAB1454 P0014 T00780061 =
2018-12-16 10:31 METAR KDCA 161531Z 36010KT 4SM RA BR OVC006 08/06 A2987 RMK AO2 DZE1454RAB1454
                 P0010 T00780056 =
2018-12-16 10:20 METAR KDCA 161520Z 02012KT 2 1/2SM R01/6000VP6000FT +RA BR OVC006 08/06 A2988
                 RMK AO2 DZE1454RAB1454 P0007 T00780056 =
2018-12-16 09:52 METAR KDCA 161452Z 01012KT 3SM -DZ BR OVC006 08/06 A2989 RMK AO2 SLP119 P0002
                 60004 T00780061 50002 =
2018-12-16 09:06 METAR KDCA 161406Z 01011KT 4SM -DZ BR OVC006 08/06 A2989 RMK AO2 P0001 T00780061
                 =
2018-12-16 08:52 METAR KDCA 161352Z 01013KT 2 1/2SM -DZ BR OVC007 08/06 A2989 RMK AO2 SLP120
                 P0001 T00780061 =
2018-12-16 08:33 METAR KDCA 161333Z 01009KT 2SM -DZ BR OVC007 08/07 A2989 RMK AO2 P0001 T00780067
                 =
2018-12-16 07:52 METAR KDCA 161252Z 01011KT 1 1/2SM -DZ BR OVC006 08/07 A2988 RMK AO2 SLP118
                 P0001 T00830067 =
2018-12-16 07:36 METAR KDCA 161236Z 36010KT 1 3/4SM -DZ BR OVC006 08/07 A2988 RMK AO2 P0001
                 T00830067 =
2018-12-16 06:52 METAR KDCA 161152Z 02010KT 2SM -DZ BR BKN006 OVC010 08/07 A2988 RMK AO2 SLP118
                 P0002 60006 70238 T00830067 10100 20083 53001 =
2018-12-16 06:36 METAR KDCA 161136Z 02009KT 2SM -DZ BR BKN006 OVC012 08/07 A2988 RMK AO2 P0002
                 T00830067 =
2018-12-16 06:27 METAR KDCA 161127Z 02009KT 2 1/2SM -DZ BR BKN009 OVC012 08/07 A2988 RMK AO2
                 P0001 T00830067 =
2018-12-16 05:52 METAR KDCA 161052Z 02007KT 2 1/2SM -DZ BR OVC007 09/07 A2988 RMK AO2 SLP116
                 P0000 T00890067 =
2018-12-16 05:27 METAR KDCA 161027Z 04011G18KT 3SM -DZ BR OVC008 09/07 A2987 RMK AO2 P0000
                 T00890072 =

Support USWX by starting your Amazon purchase here.